createdAt,value
2019-02-25T00:01:13.274Z,97349.61
2019-02-25T00:03:41.171Z,97348.09
2019-02-25T00:06:09.072Z,97338.59
2019-02-25T00:08:36.975Z,97345.77
2019-02-25T00:11:05.035Z,97341.73
2019-02-25T00:13:32.986Z,97342.59
2019-02-25T00:16:00.881Z,97341.67
2019-02-25T00:18:28.791Z,97334.30
2019-02-25T00:20:56.699Z,97333.77
2019-02-25T00:23:24.626Z,97328.80
2019-02-25T00:25:52.532Z,97325.41
2019-02-25T00:28:20.435Z,97330.66
2019-02-25T00:30:48.345Z,97326.92
2019-02-25T00:33:16.302Z,97322.59
2019-02-25T00:35:44.204Z,97321.16
2019-02-25T00:38:12.101Z,97323.59
2019-02-25T00:40:40.023Z,97324.03
2019-02-25T00:43:07.916Z,97329.92
2019-02-25T00:45:35.810Z,97323.25
2019-02-25T00:48:03.720Z,97320.39
2019-02-25T00:50:31.625Z,97326.06
2019-02-25T00:52:59.530Z,97322.59
2019-02-25T00:55:27.431Z,97321.05
2019-02-25T00:57:55.327Z,97321.69
2019-02-25T01:00:23.267Z,97322.75
2019-02-25T01:02:51.203Z,97325.73
2019-02-25T01:05:19.099Z,97322.64
2019-02-25T01:07:47.008Z,97319.08
2019-02-25T01:10:14.918Z,97318.39
2019-02-25T01:12:42.819Z,97314.96
2019-02-25T01:15:10.748Z,97323.76
2019-02-25T01:17:38.743Z,97318.25
2019-02-25T01:20:07.392Z,97314.16
2019-02-25T01:22:35.287Z,97308.36
2019-02-25T01:25:03.197Z,97317.13
2019-02-25T01:27:31.147Z,97314.23
2019-02-25T01:29:59.087Z,97308.46
2019-02-25T01:32:26.986Z,97311.84
2019-02-25T01:34:54.991Z,97303.98
2019-02-25T01:37:22.904Z,97302.80
2019-02-25T01:39:50.811Z,97310.84
2019-02-25T01:42:18.706Z,97305.79
2019-02-25T01:44:46.632Z,97304.91
2019-02-25T01:47:14.569Z,97306.41
2019-02-25T01:49:42.483Z,97305.30
2019-02-25T01:52:10.419Z,97306.11
2019-02-25T01:54:38.343Z,97309.27
2019-02-25T01:57:06.244Z,97314.23
2019-02-25T01:59:34.154Z,97315.34
2019-02-25T02:02:02.106Z,97320.03
2019-02-25T02:04:30.126Z,97321.19
2019-02-25T02:06:58.056Z,97317.20
2019-02-25T02:09:25.961Z,97329.16
2019-02-25T02:11:53.866Z,97321.33
2019-02-25T02:14:21.763Z,97323.22
2019-02-25T02:16:49.724Z,97321.08
2019-02-25T02:19:17.612Z,97325.97
2019-02-25T02:21:45.569Z,97318.66
2019-02-25T02:24:13.465Z,97315.59
2019-02-25T02:26:41.413Z,97319.31
2019-02-25T02:29:09.322Z,97320.13
2019-02-25T02:31:37.218Z,97314.44
2019-02-25T02:34:05.116Z,97314.19
2019-02-25T02:36:33.060Z,97317.14
2019-02-25T02:39:00.955Z,97316.48
2019-02-25T02:41:28.893Z,97313.94
2019-02-25T02:43:56.818Z,97314.05
2019-02-25T02:46:31.238Z,97322.14
2019-02-25T02:48:59.133Z,97309.05
2019-02-25T02:51:27.072Z,97307.16
2019-02-25T02:53:54.981Z,97299.45
2019-02-25T02:56:22.895Z,97303.36
2019-02-25T02:58:50.881Z,97305.41
2019-02-25T03:01:18.817Z,97302.55
2019-02-25T03:03:46.726Z,97301.30
2019-02-25T03:06:14.717Z,97306.16
2019-02-25T03:08:42.639Z,97304.67
2019-02-25T03:11:10.536Z,97304.45
2019-02-25T03:13:38.468Z,97305.38
2019-02-25T03:16:06.382Z,97311.65
2019-02-25T03:18:34.282Z,97314.67
2019-02-25T03:21:02.237Z,97302.67
2019-02-25T03:23:30.135Z,97302.94
2019-02-25T03:25:58.093Z,97295.11
2019-02-25T03:28:26.058Z,97301.25
2019-02-25T03:30:53.951Z,97290.84
2019-02-25T03:33:21.874Z,97293.70
2019-02-25T03:35:51.725Z,97294.59
2019-02-25T03:38:19.630Z,97303.95
2019-02-25T03:40:50.221Z,97302.99
2019-02-25T03:43:18.193Z,97299.91
2019-02-25T03:45:46.198Z,97306.66
2019-02-25T03:48:15.000Z,97308.66
2019-02-25T03:50:42.952Z,97297.23
2019-02-25T03:53:10.884Z,97298.04
2019-02-25T03:55:38.800Z,97302.68
2019-02-25T03:58:11.767Z,97297.80
2019-02-25T04:00:40.720Z,97293.88
2019-02-25T04:03:12.124Z,97294.00
2019-02-25T04:05:40.044Z,97291.61
2019-02-25T04:08:07.987Z,97298.01
2019-02-25T04:10:35.916Z,97301.69
2019-02-25T04:13:05.778Z,97302.13
2019-02-25T04:15:34.517Z,97296.69
2019-02-25T04:18:02.447Z,97294.72
2019-02-25T04:20:30.331Z,97301.11
2019-02-25T04:22:58.273Z,97296.09
2019-02-25T04:25:26.202Z,97299.94
2019-02-25T04:27:54.144Z,97298.05
2019-02-25T04:30:23.043Z,97297.41
2019-02-25T04:32:55.302Z,97300.72
2019-02-25T04:35:24.176Z,97298.85
2019-02-25T04:37:52.152Z,97296.97
2019-02-25T04:40:20.075Z,97292.73
2019-02-25T04:42:47.983Z,97296.34
2019-02-25T04:45:16.845Z,97303.06
2019-02-25T04:47:44.860Z,97306.01
2019-02-25T04:50:12.765Z,97297.35
2019-02-25T04:52:40.664Z,97297.90
2019-02-25T04:55:09.429Z,97301.28
2019-02-25T04:57:37.401Z,97297.82
2019-02-25T05:00:09.165Z,97302.53
2019-02-25T05:02:37.068Z,97299.70
2019-02-25T05:05:04.973Z,97302.13
2019-02-25T05:07:32.920Z,97300.55
2019-02-25T05:10:00.844Z,97301.90
2019-02-25T05:12:28.809Z,97299.81
2019-02-25T05:14:58.108Z,97308.72
2019-02-25T05:17:26.011Z,97308.13
2019-02-25T05:19:54.071Z,97308.83
2019-02-25T05:22:21.987Z,97307.24
2019-02-25T05:24:49.968Z,97312.48
2019-02-25T05:27:17.839Z,97311.45
2019-02-25T05:29:46.684Z,97314.21
2019-02-25T05:32:14.614Z,97315.68
2019-02-25T05:34:42.518Z,97312.95
2019-02-25T05:37:10.436Z,97304.67
2019-02-25T05:39:40.297Z,97308.34
2019-02-25T05:42:09.221Z,97305.16
2019-02-25T05:44:37.144Z,97304.13
2019-02-25T05:47:05.052Z,97302.57
2019-02-25T05:49:33.070Z,97298.54
2019-02-25T05:52:00.979Z,97301.13
2019-02-25T05:54:29.957Z,97304.45
2019-02-25T05:56:57.896Z,97306.34
2019-02-25T05:59:26.782Z,97314.28
2019-02-25T06:01:56.858Z,97321.87
2019-02-25T06:04:24.764Z,97318.33
2019-02-25T06:06:52.672Z,97308.50
2019-02-25T06:09:21.595Z,97297.53
2019-02-25T06:11:51.473Z,97304.39
2019-02-25T06:14:19.410Z,97309.76
2019-02-25T06:16:47.390Z,97314.22
2019-02-25T06:19:15.447Z,97319.90
2019-02-25T06:21:43.368Z,97321.78
2019-02-25T06:24:11.276Z,97320.44
2019-02-25T06:26:39.197Z,97321.57
2019-02-25T06:29:08.563Z,97322.87
2019-02-25T06:31:36.508Z,97313.50
2019-02-25T06:34:07.960Z,97313.44
2019-02-25T06:36:35.910Z,97318.50
2019-02-25T06:39:04.995Z,97323.19
2019-02-25T06:41:33.904Z,97321.83
2019-02-25T06:44:01.800Z,97317.94
2019-02-25T06:46:29.728Z,97320.46
2019-02-25T06:48:57.633Z,97319.55
2019-02-25T06:51:25.582Z,97318.58
2019-02-25T06:53:53.472Z,97310.25
2019-02-25T06:56:21.414Z,97318.47
2019-02-25T06:58:49.405Z,97312.68
2019-02-25T07:01:17.310Z,97319.50
2019-02-25T07:03:45.199Z,97317.68
2019-02-25T07:06:15.595Z,97322.03
2019-02-25T07:08:43.495Z,97323.40
2019-02-25T07:11:11.451Z,97324.41
2019-02-25T07:13:45.889Z,97312.64
2019-02-25T07:19:15.299Z,97311.56
2019-02-25T07:21:57.953Z,97309.22
2019-02-25T07:30:27.170Z,97305.59
2019-02-25T07:32:58.888Z,97310.89
2019-02-25T07:35:34.494Z,97316.25
2019-02-25T07:38:06.867Z,97321.47
2019-02-25T07:40:38.286Z,97317.13
2019-02-25T07:43:16.114Z,97313.89
2019-02-25T07:45:48.393Z,97309.34
2019-02-25T07:48:27.123Z,97312.75
2019-02-25T07:50:57.363Z,97318.10
2019-02-25T07:53:26.817Z,97318.91
2019-02-25T07:56:09.600Z,97313.48
2019-02-25T07:58:38.335Z,97307.52
2019-02-25T08:07:00.656Z,97306.36
2019-02-25T08:09:28.557Z,97310.85
2019-02-25T08:11:56.540Z,97306.19
2019-02-25T08:14:29.973Z,97315.19
2019-02-25T08:19:55.660Z,97311.31
2019-02-25T08:22:28.097Z,97318.55
2019-02-25T08:25:02.402Z,97319.81
2019-02-25T08:27:33.139Z,97307.93
2019-02-25T08:30:01.110Z,97306.27
2019-02-25T08:32:29.011Z,97303.80
2019-02-25T08:35:11.795Z,97302.52
2019-02-25T08:37:42.552Z,97303.92
2019-02-25T08:40:21.377Z,97309.75
2019-02-25T08:42:48.719Z,97304.67
2019-02-25T08:48:09.948Z,97298.70
2019-02-25T08:50:37.841Z,97297.28
2019-02-25T08:53:06.676Z,97303.05
2019-02-25T08:55:34.567Z,97305.40
2019-02-25T08:58:02.451Z,97309.13
2019-02-25T09:00:30.426Z,97309.66
2019-02-25T09:03:02.036Z,97309.42
2019-02-25T09:05:29.948Z,97311.22
2019-02-25T09:07:57.885Z,97308.64
2019-02-25T09:10:25.774Z,97314.56
2019-02-25T09:12:53.719Z,97310.39
2019-02-25T09:15:21.823Z,97315.27
2019-02-25T09:17:49.321Z,97315.11
2019-02-25T09:20:17.227Z,97315.82
2019-02-25T09:22:45.116Z,97327.80
2019-02-25T09:25:13.595Z,97325.64
2019-02-25T09:27:41.630Z,97330.38
2019-02-25T09:30:13.802Z,97319.78
2019-02-25T09:32:41.925Z,97315.91
2019-02-25T09:35:09.831Z,97316.78
2019-02-25T09:37:37.809Z,97317.04
2019-02-25T09:40:05.712Z,97314.65
2019-02-25T09:42:33.649Z,97314.90
2019-02-25T09:45:01.595Z,97324.61
2019-02-25T09:47:29.581Z,97325.52
2019-02-25T09:49:57.556Z,97324.34
2019-02-25T09:52:25.553Z,97330.39
2019-02-25T09:54:53.459Z,97323.21
2019-02-25T09:57:21.368Z,97329.34
2019-02-25T09:59:49.685Z,97326.66
2019-02-25T10:02:17.610Z,97321.41
2019-02-25T10:04:45.552Z,97323.91
2019-02-25T10:07:13.469Z,97323.15
2019-02-25T10:09:41.373Z,97326.86
2019-02-25T10:12:09.280Z,97324.02
2019-02-25T10:14:37.327Z,97323.58
2019-02-25T10:17:05.224Z,97322.45
2019-02-25T10:19:34.759Z,97327.71
2019-02-25T10:22:01.286Z,97328.39
2019-02-25T10:24:29.178Z,97324.19
2019-02-25T10:26:57.083Z,97323.13
2019-02-25T10:29:25.043Z,97322.11
2019-02-25T10:31:53.014Z,97325.14
2019-02-25T10:34:23.938Z,97328.09
2019-02-25T10:36:52.368Z,97329.56
2019-02-25T10:39:19.816Z,97331.84
2019-02-25T10:41:48.266Z,97330.78
2019-02-25T10:44:16.149Z,97326.34
2019-02-25T10:46:44.957Z,97330.45
2019-02-25T10:49:11.996Z,97326.73
2019-02-25T10:51:41.160Z,97316.09
2019-02-25T10:54:07.894Z,97315.40
2019-02-25T10:56:35.984Z,97308.67
2019-02-25T10:59:05.696Z,97307.27
2019-02-25T11:01:31.892Z,97305.33
2019-02-25T11:03:59.765Z,97308.85
2019-02-25T11:06:29.095Z,97317.66
2019-02-25T11:08:55.560Z,97307.28
2019-02-25T11:11:26.632Z,97313.56
2019-02-25T11:13:51.396Z,97309.45
2019-02-25T11:16:20.418Z,97311.62
2019-02-25T11:18:47.274Z,97313.00
2019-02-25T11:21:15.171Z,97303.04
2019-02-25T11:23:45.061Z,97292.41
2019-02-25T11:26:11.101Z,97281.95
2019-02-25T11:28:41.077Z,97295.14
2019-02-25T11:31:07.223Z,97290.02
2019-02-25T11:33:35.260Z,97293.63
2019-02-25T11:36:03.151Z,97285.59
2019-02-25T11:38:34.225Z,97278.97
2019-02-25T11:40:59.813Z,97272.83
2019-02-25T11:43:27.060Z,97270.96
2019-02-25T11:45:54.968Z,97270.34
2019-02-25T11:48:22.964Z,97275.99
2019-02-25T11:50:51.891Z,97274.39
2019-02-25T11:53:19.800Z,97265.80
2019-02-25T11:55:47.733Z,97264.47
2019-02-25T11:58:16.627Z,97256.50
2019-02-25T12:00:44.573Z,97259.56
2019-02-25T12:03:12.474Z,97261.36
2019-02-25T12:05:40.424Z,97258.64
2019-02-25T12:08:08.344Z,97274.08
2019-02-25T12:10:37.092Z,97257.89
2019-02-25T12:13:05.056Z,97259.27
2019-02-25T12:15:32.961Z,97261.67
2019-02-25T12:18:00.872Z,97261.59
2019-02-25T12:20:28.813Z,97259.39
2019-02-25T12:22:56.720Z,97248.05
2019-02-25T12:25:24.655Z,97247.95
2019-02-25T12:27:52.553Z,97244.08
2019-02-25T12:30:22.871Z,97243.95
2019-02-25T12:32:50.808Z,97245.16
2019-02-25T12:35:18.699Z,97248.72
2019-02-25T12:37:46.626Z,97245.44
2019-02-25T12:40:15.243Z,97241.59
2019-02-25T12:42:43.223Z,97257.13
2019-02-25T12:45:11.130Z,97253.70
2019-02-25T12:47:39.037Z,97243.83
2019-02-25T12:50:10.755Z,97251.45
2019-02-25T12:52:39.604Z,97251.68
2019-02-25T12:55:08.272Z,97240.23
2019-02-25T12:57:36.239Z,97235.98
2019-02-25T13:00:04.166Z,97232.77
2019-02-25T13:02:32.059Z,97237.33
2019-02-25T13:05:00.325Z,97220.42
2019-02-25T13:07:28.084Z,97216.95
2019-02-25T13:09:56.015Z,97210.92
2019-02-25T13:12:24.079Z,97207.89
2019-02-25T13:14:52.803Z,97221.80
2019-02-25T13:17:20.695Z,97211.95
2019-02-25T13:19:48.693Z,97203.16
2019-02-25T13:22:16.607Z,97195.69
2019-02-25T13:24:45.526Z,97189.90
2019-02-25T13:27:13.898Z,97182.63
2019-02-25T13:29:41.366Z,97182.66
2019-02-25T13:32:09.264Z,97176.58
2019-02-25T13:34:37.190Z,97185.31
2019-02-25T13:37:05.133Z,97181.64
2019-02-25T13:39:34.016Z,97178.41
2019-02-25T13:42:01.937Z,97176.52
2019-02-25T13:44:29.859Z,97174.86
2019-02-25T13:46:57.890Z,97169.88
2019-02-25T13:49:25.778Z,97174.47
2019-02-25T13:51:53.693Z,97161.95
2019-02-25T13:54:22.508Z,97175.66
2019-02-25T13:56:50.421Z,97164.02
2019-02-25T13:59:18.306Z,97168.24
2019-02-25T14:01:46.237Z,97159.48
2019-02-25T14:04:14.161Z,97158.52
2019-02-25T14:06:42.077Z,97154.16
2019-02-25T14:09:09.967Z,97153.37
2019-02-25T14:11:39.783Z,97143.91
2019-02-25T14:14:07.684Z,97144.90
2019-02-25T14:16:35.605Z,97152.73
2019-02-25T14:19:04.388Z,97148.63
2019-02-25T14:21:34.501Z,97148.23
2019-02-25T14:24:02.218Z,97144.59
2019-02-25T14:26:30.136Z,97132.61
2019-02-25T14:28:58.025Z,97133.91
2019-02-25T14:31:27.295Z,97133.55
2019-02-25T14:33:53.938Z,97135.63
2019-02-25T14:36:21.853Z,97138.62
2019-02-25T14:38:51.635Z,97125.47
2019-02-25T14:41:21.207Z,97121.58
2019-02-25T14:43:49.184Z,97112.87
2019-02-25T14:46:17.308Z,97115.04
2019-02-25T14:48:43.396Z,97115.64
2019-02-25T14:51:11.365Z,97109.74
2019-02-25T14:53:39.277Z,97102.22
2019-02-25T14:56:07.216Z,97101.75
2019-02-25T14:58:36.153Z,97107.07
2019-02-25T15:01:03.087Z,97103.08
2019-02-25T15:03:31.029Z,97103.63
2019-02-25T15:05:59.306Z,97101.52
2019-02-25T15:08:28.479Z,97091.61
2019-02-25T15:10:55.534Z,97098.71
2019-02-25T15:13:24.418Z,97098.40
2019-02-25T15:15:50.725Z,97098.62
2019-02-25T15:18:20.050Z,97096.12
2019-02-25T15:20:46.571Z,97096.23
2019-02-25T15:23:16.567Z,97087.84
2019-02-25T15:25:43.223Z,97082.91
2019-02-25T15:28:11.967Z,97077.70
2019-02-25T15:30:38.366Z,97077.62
2019-02-25T15:33:06.277Z,97078.34
2019-02-25T15:35:36.627Z,97079.42
2019-02-25T15:38:02.108Z,97075.34
2019-02-25T15:40:30.007Z,97076.25
2019-02-25T15:42:59.831Z,97073.09
2019-02-25T15:45:28.844Z,97080.09
2019-02-25T15:47:57.630Z,97079.39
2019-02-25T15:50:23.635Z,97080.73
2019-02-25T15:52:51.580Z,97084.94
2019-02-25T15:55:21.241Z,97088.01
2019-02-25T15:57:49.224Z,97086.02
2019-02-25T16:00:19.091Z,97080.84
2019-02-25T16:02:45.102Z,97078.81
2019-02-25T16:05:13.034Z,97073.83
2019-02-25T16:07:40.962Z,97072.53
2019-02-25T16:10:11.874Z,97075.13
2019-02-25T16:12:38.615Z,97073.13
2019-02-25T16:15:11.488Z,97073.27
2019-02-25T16:17:40.900Z,97070.86
2019-02-25T16:20:09.397Z,97075.23
2019-02-25T16:22:39.079Z,97080.95
2019-02-25T16:25:05.375Z,97084.03
2019-02-25T16:27:33.144Z,97078.19
2019-02-25T16:30:02.928Z,97082.25
2019-02-25T16:32:29.012Z,97081.17
2019-02-25T16:34:58.564Z,97082.80
2019-02-25T16:37:26.859Z,97090.80
2019-02-25T16:39:53.701Z,97091.34
2019-02-25T16:42:20.795Z,97097.19
2019-02-25T16:44:48.696Z,97097.52
2019-02-25T16:47:19.607Z,97106.45
2019-02-25T16:49:45.512Z,97102.31
2019-02-25T16:52:15.817Z,97102.58
2019-02-25T16:54:43.411Z,97100.67
2019-02-25T16:57:14.103Z,97101.45
2019-02-25T16:59:40.230Z,97102.44
2019-02-25T17:02:11.864Z,97114.14
2019-02-25T17:04:37.028Z,97121.78
2019-02-25T17:07:04.917Z,97121.04
2019-02-25T17:09:34.225Z,97123.05
2019-02-25T17:12:02.325Z,97126.30
2019-02-25T17:14:28.669Z,97135.63
2019-02-25T17:16:57.031Z,97135.10
2019-02-25T17:19:25.394Z,97131.58
2019-02-25T17:21:53.268Z,97135.15
2019-02-25T17:24:23.691Z,97143.77
2019-02-25T17:26:49.091Z,97141.33
2019-02-25T17:29:17.937Z,97146.94
2019-02-25T17:31:45.836Z,97155.65
2019-02-25T17:34:14.387Z,97155.93
2019-02-25T17:36:43.115Z,97160.16
2019-02-25T17:39:12.528Z,97156.33
2019-02-25T17:41:39.997Z,97158.67
2019-02-25T17:44:06.427Z,97156.50
2019-02-25T17:46:36.878Z,97158.47
2019-02-25T17:49:03.200Z,97158.97
2019-02-25T17:51:33.487Z,97159.83
2019-02-25T17:54:01.437Z,97160.99
2019-02-25T17:56:30.339Z,97155.86
2019-02-25T17:58:59.404Z,97153.92
2019-02-25T18:01:28.002Z,97161.84
2019-02-25T18:03:55.120Z,97156.83
2019-02-25T18:06:28.765Z,97153.88
2019-02-25T18:08:51.460Z,97164.02
2019-02-25T18:11:20.738Z,97174.58
2019-02-25T18:13:49.031Z,97171.03
2019-02-25T18:16:17.289Z,97167.52
2019-02-25T18:18:47.493Z,97168.12
2019-02-25T18:21:15.392Z,97163.81
2019-02-25T18:23:44.295Z,97166.88
2019-02-25T18:26:12.472Z,97175.87
2019-02-25T18:28:41.644Z,97172.39
2019-02-25T18:31:10.831Z,97174.67
2019-02-25T18:33:35.933Z,97177.30
2019-02-25T18:36:04.458Z,97179.81
2019-02-25T18:38:31.804Z,97180.41
2019-02-25T18:41:00.386Z,97167.91
2019-02-25T18:43:30.217Z,97161.58
2019-02-25T18:45:58.435Z,97157.03
2019-02-25T18:48:27.364Z,97159.66
2019-02-25T18:50:56.622Z,97159.63
2019-02-25T18:53:22.606Z,97154.27
2019-02-25T18:55:51.808Z,97154.74
2019-02-25T18:58:18.304Z,97159.64
2019-02-25T19:00:47.717Z,97158.66
2019-02-25T19:03:15.084Z,97164.67
2019-02-25T19:05:43.013Z,97164.95
2019-02-25T19:08:19.200Z,97163.52
2019-02-25T19:10:46.133Z,97160.79
2019-02-25T19:13:13.288Z,97163.64
2019-02-25T19:15:40.839Z,97163.48
2019-02-25T19:18:09.479Z,97157.02
2019-02-25T19:20:37.175Z,97156.09
2019-02-25T19:23:05.400Z,97151.22
2019-02-25T19:25:32.422Z,97147.88
2019-02-25T19:28:00.318Z,97148.69
2019-02-25T19:30:29.777Z,97150.70
2019-02-25T19:32:56.162Z,97144.37
2019-02-25T19:35:27.799Z,97142.91
2019-02-25T19:37:52.071Z,97144.20
2019-02-25T19:40:22.655Z,97146.02
2019-02-25T19:42:51.540Z,97145.33
2019-02-25T19:45:18.411Z,97151.48
2019-02-25T19:47:46.312Z,97158.87
2019-02-25T19:50:16.900Z,97161.66
2019-02-25T19:52:46.694Z,97160.34
2019-02-25T19:55:15.260Z,97162.38
2019-02-25T19:57:42.493Z,97169.67
2019-02-25T20:00:22.050Z,97172.27
2019-02-25T20:02:48.915Z,97173.39
2019-02-25T20:05:19.354Z,97175.22
2019-02-25T20:07:47.671Z,97178.91
2019-02-25T20:10:16.523Z,97188.84
2019-02-25T20:12:44.463Z,97190.24
2019-02-25T20:15:20.842Z,97188.80
2019-02-25T20:17:48.849Z,97192.90
2019-02-25T20:20:17.737Z,97194.08
2019-02-25T20:22:45.635Z,97196.71
2019-02-25T20:25:16.464Z,97196.37
2019-02-25T20:27:42.418Z,97193.63
2019-02-25T20:30:13.326Z,97196.25
2019-02-25T20:32:42.831Z,97199.56
2019-02-25T20:35:10.024Z,97202.84
2019-02-25T20:37:37.917Z,97195.14
2019-02-25T20:40:05.808Z,97194.63
2019-02-25T20:42:34.732Z,97191.38
2019-02-25T20:45:04.548Z,97197.78
2019-02-25T20:47:30.512Z,97195.13
2019-02-25T20:50:00.455Z,97196.10
2019-02-25T20:52:26.301Z,97201.02
2019-02-25T20:54:55.055Z,97198.03
2019-02-25T20:57:22.947Z,97199.13
2019-02-25T20:59:51.012Z,97196.16
2019-02-25T21:02:20.739Z,97204.23
2019-02-25T21:04:48.566Z,97212.00
2019-02-25T21:07:14.614Z,97217.58
2019-02-25T21:09:42.498Z,97219.37
2019-02-25T21:12:13.213Z,97220.91
2019-02-25T21:14:41.129Z,97217.78
2019-02-25T21:17:07.155Z,97218.87
2019-02-25T21:19:36.154Z,97218.33
2019-02-25T21:22:04.508Z,97217.89
2019-02-25T21:24:31.577Z,97218.83
2019-02-25T21:27:01.465Z,97214.27
2019-02-25T21:29:29.369Z,97210.77
2019-02-25T21:31:56.986Z,97209.05
2019-02-25T21:34:24.433Z,97201.04
2019-02-25T21:36:54.653Z,97197.52
2019-02-25T21:39:20.751Z,97196.66
2019-02-25T21:41:48.698Z,97195.16
2019-02-25T21:44:18.925Z,97194.72
2019-02-25T21:46:49.590Z,97192.64
2019-02-25T21:49:12.424Z,97192.16
2019-02-25T21:51:41.968Z,97198.39
2019-02-25T21:54:09.173Z,97196.39
2019-02-25T21:56:37.056Z,97200.07
2019-02-25T21:59:06.607Z,97198.30
2019-02-25T22:01:34.540Z,97199.91
2019-02-25T22:04:01.690Z,97195.38
2019-02-25T22:06:31.192Z,97194.39
2019-02-25T22:08:58.561Z,97194.80
2019-02-25T22:11:25.471Z,97193.86
2019-02-25T22:13:53.369Z,97191.00
2019-02-25T22:16:21.927Z,97192.04
2019-02-25T22:18:50.360Z,97195.41
2019-02-25T22:21:21.272Z,97198.06
2019-02-25T22:23:49.484Z,97200.78
2019-02-25T22:26:16.636Z,97197.77
2019-02-25T22:28:44.565Z,97195.87
2019-02-25T22:31:13.857Z,97196.06
2019-02-25T22:33:40.411Z,97195.63
2019-02-25T22:36:08.259Z,97188.77
2019-02-25T22:38:36.275Z,97187.29
2019-02-25T22:41:04.157Z,97184.44
2019-02-25T22:43:34.054Z,97184.19
2019-02-25T22:46:02.531Z,97184.19
2019-02-25T22:48:29.831Z,97179.28
2019-02-25T22:51:00.712Z,97182.33
2019-02-25T22:53:27.485Z,97174.89
2019-02-25T22:55:55.359Z,97171.94
2019-02-25T22:58:23.255Z,97171.55
2019-02-25T23:00:51.141Z,97172.61
2019-02-25T23:03:20.913Z,97173.67
2019-02-25T23:05:50.086Z,97173.77
2019-02-25T23:08:18.171Z,97175.02
2019-02-25T23:10:46.765Z,97179.88
2019-02-25T23:13:12.504Z,97170.02
2019-02-25T23:15:42.087Z,97173.69
2019-02-25T23:18:11.988Z,97172.25
2019-02-25T23:20:37.079Z,97175.36
2019-02-25T23:23:06.696Z,97174.31
2019-02-25T23:25:32.896Z,97185.23
2019-02-25T23:28:02.276Z,97188.22
2019-02-25T23:30:29.653Z,97191.33
2019-02-25T23:32:57.635Z,97192.10
2019-02-25T23:35:25.539Z,97193.26
2019-02-25T23:37:54.430Z,97201.30
2019-02-25T23:40:22.259Z,97207.70
2019-02-25T23:42:50.143Z,97208.83
2019-02-25T23:45:20.451Z,97212.65
2019-02-25T23:47:45.939Z,97214.61
2019-02-25T23:50:14.761Z,97223.11
2019-02-25T23:52:43.709Z,97218.14
2019-02-25T23:55:16.512Z,97219.50
2019-02-25T23:57:40.389Z,97211.04
